createdAt,value
2019-05-09T00:02:33.761Z,76558.92
2019-05-09T00:05:03.709Z,76552.87
2019-05-09T00:07:33.826Z,76558.92
2019-05-09T00:10:04.013Z,76562.97
2019-05-09T00:12:33.731Z,76570.04
2019-05-09T00:15:04.467Z,76575.09
2019-05-09T00:17:34.306Z,76570.04
2019-05-09T00:20:10.847Z,76580.14
2019-05-09T00:22:40.100Z,76575.09
2019-05-09T00:25:10.340Z,76582.16
2019-05-09T00:27:39.654Z,76585.19
2019-05-09T00:30:09.195Z,76579.13
2019-05-09T00:32:40.261Z,76573.07
2019-05-09T00:35:26.637Z,76575.09
2019-05-09T00:37:58.319Z,76573.07
2019-05-09T00:40:27.761Z,76576.09
2019-05-09T00:42:56.972Z,76570.04
2019-05-09T00:45:45.198Z,76584.18
2019-05-09T00:48:16.845Z,76590.23
2019-05-09T00:50:46.111Z,76599.33
2019-05-09T00:53:15.719Z,76594.28
2019-05-09T00:55:45.606Z,76595.29
2019-05-09T00:58:15.092Z,76599.33
2019-05-09T01:00:45.069Z,76596.30
2019-05-09T01:03:14.389Z,76600.34
2019-05-09T01:05:44.117Z,76599.33
2019-05-09T01:08:16.322Z,76602.36
2019-05-09T01:10:45.636Z,76600.34
2019-05-09T01:13:14.940Z,76608.42
2019-05-09T01:15:44.359Z,76611.45
2019-05-09T01:18:16.114Z,76617.51
2019-05-09T01:20:45.344Z,76623.57
2019-05-09T01:23:14.620Z,76625.59
2019-05-09T01:25:43.965Z,76630.64
2019-05-09T01:28:14.030Z,76632.66
2019-05-09T01:30:43.952Z,76630.64
2019-05-09T01:33:27.592Z,76640.74
2019-05-09T01:35:57.259Z,76640.74
2019-05-09T01:38:26.889Z,76640.74
2019-05-09T01:40:56.405Z,76655.89
2019-05-09T01:43:25.991Z,76659.94
2019-05-09T01:45:55.566Z,76668.02
2019-05-09T01:48:25.219Z,76674.08
2019-05-09T01:50:54.475Z,76676.09
2019-05-09T01:53:33.609Z,76694.27
2019-05-09T01:56:03.849Z,76700.34
2019-05-09T01:58:34.573Z,76709.42
2019-05-09T02:01:06.499Z,76713.47
2019-05-09T02:03:37.027Z,76730.64
2019-05-09T02:06:06.778Z,76742.76
2019-05-09T02:08:36.552Z,76744.78
2019-05-09T02:11:05.782Z,76754.88
2019-05-09T02:13:35.392Z,76768.02
2019-05-09T02:16:36.082Z,76773.06
2019-05-09T02:19:20.107Z,76777.09
2019-05-09T02:21:49.838Z,76790.23
2019-05-09T02:24:19.439Z,76794.27
2019-05-09T02:26:48.692Z,76798.31
2019-05-09T02:29:17.999Z,76805.38
2019-05-09T02:31:47.630Z,76809.42
2019-05-09T02:34:17.247Z,76814.47
2019-05-09T02:36:49.488Z,76821.55
2019-05-09T02:39:18.877Z,76829.63
2019-05-09T02:42:00.989Z,76831.64
2019-05-09T02:44:19.933Z,76836.70
2019-05-09T02:47:14.039Z,76840.73
2019-05-09T02:49:44.432Z,76841.75
2019-05-09T02:52:13.990Z,76844.78
2019-05-09T02:54:43.620Z,76835.69
2019-05-09T02:57:12.911Z,76835.69
2019-05-09T03:00:10.776Z,76847.80
2019-05-09T03:02:59.518Z,76853.87
2019-05-09T03:05:30.405Z,76844.78
2019-05-09T03:07:59.920Z,76850.84
2019-05-09T03:10:29.703Z,76852.86
2019-05-09T03:12:59.663Z,76855.89
2019-05-09T03:15:29.533Z,76858.92
2019-05-09T03:18:00.135Z,76870.03
2019-05-09T03:21:08.988Z,76871.04
2019-05-09T03:23:38.916Z,76868.01
2019-05-09T03:26:10.363Z,76865.98
2019-05-09T03:29:04.483Z,76858.92
2019-05-09T03:31:34.271Z,76848.81
2019-05-09T03:34:03.545Z,76842.75
2019-05-09T03:36:33.567Z,76833.66
2019-05-09T03:39:03.116Z,76838.72
2019-05-09T03:41:32.685Z,76842.75
2019-05-09T03:44:02.331Z,76845.78
2019-05-09T03:46:51.739Z,76846.80
2019-05-09T03:49:22.191Z,76859.92
2019-05-09T03:51:51.430Z,76867.00
2019-05-09T03:54:21.003Z,76853.87
2019-05-09T03:56:57.235Z,76864.98
2019-05-09T03:59:27.866Z,76871.04
2019-05-09T04:01:59.038Z,76872.05
2019-05-09T04:04:29.836Z,76878.11
2019-05-09T04:07:00.863Z,76868.01
2019-05-09T04:09:30.093Z,76882.15
2019-05-09T04:12:00.299Z,76873.06
2019-05-09T04:14:32.635Z,76863.97
2019-05-09T04:17:02.252Z,76851.84
2019-05-09T04:19:33.249Z,76849.83
2019-05-09T04:22:02.596Z,76843.77
2019-05-09T04:24:34.099Z,76835.69
2019-05-09T04:27:10.335Z,76833.66
2019-05-09T04:29:41.599Z,76821.55
2019-05-09T04:32:11.256Z,76802.35
2019-05-09T04:34:40.942Z,76781.14
2019-05-09T04:37:12.090Z,76753.87
2019-05-09T04:39:41.268Z,76745.79
2019-05-09T04:42:10.911Z,76729.63
2019-05-09T04:45:03.206Z,76736.70
2019-05-09T04:47:29.212Z,76746.80
2019-05-09T04:49:58.517Z,76757.91
2019-05-09T04:52:28.083Z,76756.90
2019-05-09T04:54:58.442Z,76744.78
2019-05-09T04:57:27.928Z,76743.77
2019-05-09T04:59:57.585Z,76745.79
2019-05-09T05:02:48.463Z,76739.73
2019-05-09T05:05:18.195Z,76720.53
2019-05-09T05:07:48.164Z,76668.02
2019-05-09T05:10:18.410Z,76650.84
2019-05-09T05:12:48.427Z,76641.75
2019-05-09T05:15:20.328Z,76628.63
2019-05-09T05:17:48.865Z,76649.83
2019-05-09T05:20:21.948Z,76633.67
2019-05-09T05:22:58.140Z,76618.52
2019-05-09T05:25:28.146Z,76612.46
2019-05-09T05:27:58.189Z,76598.32
2019-05-09T05:30:28.470Z,76612.46
2019-05-09T05:33:02.032Z,76609.43
2019-05-09T05:35:37.761Z,76625.59
2019-05-09T05:38:08.499Z,76559.94
2019-05-09T05:40:45.671Z,76553.88
2019-05-09T05:43:09.092Z,76541.76
2019-05-09T05:45:51.316Z,76536.70
2019-05-09T05:48:24.237Z,76526.61
2019-05-09T05:50:53.515Z,76538.73
2019-05-09T05:53:22.789Z,76468.03
2019-05-09T05:55:52.773Z,76390.26
2019-05-09T05:58:22.252Z,76337.73
2019-05-09T06:00:53.748Z,76326.63
2019-05-09T06:03:24.105Z,76274.11
2019-05-09T06:05:53.705Z,76307.44
2019-05-09T06:08:22.992Z,76238.77
2019-05-09T06:10:52.215Z,76042.84
2019-05-09T06:13:21.846Z,76006.48
2019-05-09T06:15:53.067Z,76068.09
2019-05-09T06:18:22.583Z,76140.80
2019-05-09T06:20:51.900Z,76258.97
2019-05-09T06:23:21.440Z,76334.71
2019-05-09T06:25:50.705Z,76326.63
2019-05-09T06:28:20.511Z,76302.39
2019-05-09T06:30:49.827Z,76296.33
2019-05-09T06:33:19.044Z,76191.30
2019-05-09T06:35:48.681Z,76247.85
2019-05-09T06:38:18.893Z,76298.35
2019-05-09T06:40:48.249Z,75977.20
2019-05-09T06:43:18.736Z,75564.17
2019-05-09T06:46:22.671Z,75313.77
2019-05-09T06:48:52.281Z,75273.38
2019-05-09T06:51:21.541Z,75117.88
2019-05-09T06:53:50.782Z,75149.18
2019-05-09T06:56:20.414Z,75345.06
2019-05-09T06:58:49.758Z,75808.55
2019-05-09T07:01:37.957Z,75995.38
2019-05-09T07:04:12.370Z,76149.89
2019-05-09T07:06:50.268Z,76332.69
2019-05-09T07:09:27.997Z,76316.53
2019-05-09T07:11:58.611Z,76328.65
2019-05-09T07:14:32.344Z,76299.36
2019-05-09T07:16:59.958Z,76310.47
2019-05-09T07:19:29.679Z,76284.21
2019-05-09T07:22:21.260Z,76254.92
2019-05-09T07:25:21.730Z,76287.24
2019-05-09T07:27:51.443Z,76282.19
2019-05-09T07:30:43.013Z,76248.86
2019-05-09T07:33:34.617Z,76232.70
2019-05-09T07:36:03.912Z,76281.18
2019-05-09T07:38:33.443Z,76279.16
2019-05-09T07:41:02.813Z,76312.48
2019-05-09T07:43:32.083Z,76328.65
2019-05-09T07:46:05.544Z,76315.52
2019-05-09T07:48:38.060Z,76294.31
2019-05-09T07:51:08.025Z,76275.13
2019-05-09T07:53:38.180Z,76245.83
2019-05-09T07:56:08.655Z,76213.52
2019-05-09T07:58:39.280Z,76202.41
2019-05-09T08:01:08.869Z,76252.91
2019-05-09T08:03:38.633Z,76220.58
2019-05-09T08:06:08.976Z,76184.23
2019-05-09T08:08:38.741Z,76155.95
2019-05-09T08:11:09.080Z,76152.92
2019-05-09T08:13:39.744Z,76158.98
2019-05-09T08:16:14.130Z,76148.88
2019-05-09T08:18:40.520Z,76137.77
2019-05-09T08:21:09.790Z,76129.69
2019-05-09T08:23:39.414Z,76122.63
2019-05-09T08:26:09.078Z,76124.64
2019-05-09T08:28:39.206Z,76141.81
2019-05-09T08:31:08.641Z,76080.20
2019-05-09T08:33:38.328Z,76051.93
2019-05-09T08:36:08.858Z,76017.59
2019-05-09T08:38:39.113Z,75986.28
2019-05-09T08:41:09.784Z,75936.80
2019-05-09T08:43:40.664Z,76037.79
2019-05-09T08:46:10.204Z,75975.17
2019-05-09T08:48:40.869Z,75985.27
2019-05-09T08:51:14.044Z,75962.05
2019-05-09T08:53:43.314Z,75981.23
2019-05-09T08:56:13.162Z,75935.80
2019-05-09T08:58:42.896Z,75933.77
2019-05-09T09:01:13.197Z,75947.91
2019-05-09T09:03:42.509Z,75968.11
2019-05-09T09:06:11.906Z,75908.53
2019-05-09T09:08:43.011Z,75868.13
2019-05-09T09:11:13.492Z,75806.53
2019-05-09T09:13:43.101Z,75779.27
2019-05-09T09:16:18.709Z,75801.48
2019-05-09T09:18:44.786Z,75747.96
2019-05-09T09:21:14.054Z,75709.59
2019-05-09T09:23:47.177Z,75795.42
2019-05-09T09:26:15.066Z,75807.54
2019-05-09T09:28:48.483Z,75789.36
2019-05-09T09:31:18.126Z,75807.54
2019-05-09T09:33:48.139Z,75853.99
2019-05-09T09:36:18.003Z,75819.66
2019-05-09T09:38:48.163Z,75760.08
2019-05-09T09:41:19.219Z,75805.52
2019-05-09T09:43:48.458Z,75808.55
2019-05-09T09:46:18.324Z,75743.92
2019-05-09T09:48:48.157Z,75704.54
2019-05-09T09:51:18.693Z,75746.95
2019-05-09T09:53:49.068Z,75821.68
2019-05-09T09:56:22.393Z,75833.80
2019-05-09T09:59:00.952Z,75837.84
2019-05-09T10:01:33.636Z,75758.06
2019-05-09T10:04:20.678Z,75688.38
2019-05-09T10:06:48.074Z,75682.33
2019-05-09T10:09:17.620Z,75753.01
2019-05-09T10:11:48.298Z,75780.27
2019-05-09T10:14:28.354Z,75769.17
2019-05-09T10:17:17.963Z,75806.53
2019-05-09T10:19:55.027Z,75765.13
2019-05-09T10:22:26.199Z,75770.17
2019-05-09T10:24:58.620Z,75778.25
2019-05-09T10:27:28.352Z,75719.69
2019-05-09T10:29:57.858Z,75658.09
2019-05-09T10:32:28.864Z,75712.62
2019-05-09T10:34:58.314Z,75691.41
2019-05-09T10:37:27.857Z,75674.24
2019-05-09T10:39:58.043Z,75684.34
2019-05-09T10:42:48.130Z,75732.81
2019-05-09T10:45:40.707Z,75681.31
2019-05-09T10:48:09.815Z,75713.63
2019-05-09T10:50:44.283Z,75722.72
2019-05-09T10:53:10.765Z,75598.51
2019-05-09T10:56:40.833Z,75501.57
2019-05-09T10:59:10.049Z,75513.69
2019-05-09T11:01:39.321Z,75504.60
2019-05-09T11:04:08.599Z,75562.16
2019-05-09T11:06:38.557Z,75603.56
2019-05-09T11:09:09.343Z,75625.77
2019-05-09T11:11:38.849Z,75594.47
2019-05-09T11:14:08.766Z,75581.34
2019-05-09T11:16:45.961Z,75599.52
2019-05-09T11:19:09.567Z,75574.27
2019-05-09T11:21:39.396Z,75574.27
2019-05-09T11:24:11.397Z,75621.73
2019-05-09T11:26:40.649Z,75586.39
2019-05-09T11:29:11.432Z,75584.38
2019-05-09T11:31:40.705Z,75590.44
2019-05-09T11:34:11.863Z,75624.77
2019-05-09T11:36:44.036Z,75643.95
2019-05-09T11:39:13.286Z,75652.03
2019-05-09T11:41:44.900Z,75686.36
2019-05-09T11:44:14.181Z,75765.13
2019-05-09T11:46:43.430Z,75783.30
2019-05-09T11:49:13.014Z,75838.84
2019-05-09T11:51:42.619Z,75845.91
2019-05-09T11:54:11.910Z,75823.70
2019-05-09T11:56:41.266Z,75769.17
2019-05-09T11:59:10.618Z,75732.81
2019-05-09T12:01:40.052Z,75721.70
2019-05-09T12:04:12.122Z,75688.38
2019-05-09T12:06:43.739Z,75682.33
2019-05-09T12:09:14.787Z,75736.85
2019-05-09T12:11:44.869Z,75756.04
2019-05-09T12:14:14.325Z,75767.15
2019-05-09T12:16:47.822Z,75727.77
2019-05-09T12:19:17.985Z,75689.39
2019-05-09T12:21:48.407Z,75639.91
2019-05-09T12:24:18.623Z,75611.64
2019-05-09T12:26:48.434Z,75588.41
2019-05-09T12:29:19.698Z,75638.91
2019-05-09T12:31:48.866Z,75627.80
2019-05-09T12:34:19.277Z,75610.63
2019-05-09T12:36:49.649Z,75654.05
2019-05-09T12:39:20.981Z,75658.09
2019-05-09T12:41:51.040Z,75686.36
2019-05-09T12:44:24.935Z,75670.20
2019-05-09T12:46:53.280Z,75626.78
2019-05-09T12:49:22.616Z,75599.52
2019-05-09T12:51:51.829Z,75567.20
2019-05-09T12:54:22.870Z,75584.38
2019-05-09T12:56:52.214Z,75584.38
2019-05-09T12:59:21.898Z,75602.55
2019-05-09T13:01:51.631Z,75552.06
2019-05-09T13:04:21.138Z,75599.52
2019-05-09T13:06:50.732Z,75608.61
2019-05-09T13:09:19.918Z,75615.67
2019-05-09T13:11:49.227Z,75586.39
2019-05-09T13:14:19.247Z,75533.88
2019-05-09T13:17:17.955Z,75566.20
2019-05-09T13:19:48.657Z,75570.23
2019-05-09T13:22:18.494Z,75538.94
2019-05-09T13:24:47.892Z,75554.08
2019-05-09T13:27:18.928Z,75618.70
2019-05-09T13:29:49.283Z,75647.98
2019-05-09T13:32:19.030Z,75628.80
2019-05-09T13:34:48.895Z,75611.64
2019-05-09T13:37:18.876Z,75620.73
2019-05-09T13:39:50.024Z,75589.42
2019-05-09T13:42:20.895Z,75562.16
2019-05-09T13:44:50.591Z,75601.54
2019-05-09T13:47:19.840Z,75599.52
2019-05-09T13:49:50.920Z,75540.95
2019-05-09T13:52:20.158Z,75468.25
2019-05-09T13:54:49.651Z,75428.88
2019-05-09T13:57:19.031Z,75453.10
2019-05-09T13:59:49.929Z,75520.76
2019-05-09T14:02:19.513Z,75512.68
2019-05-09T14:04:49.079Z,75507.63
2019-05-09T14:07:19.396Z,75482.39
2019-05-09T14:09:48.876Z,75465.22
2019-05-09T14:12:18.459Z,75350.11
2019-05-09T14:14:47.849Z,75364.25
2019-05-09T14:17:19.197Z,75375.36
2019-05-09T14:19:51.146Z,75329.92
2019-05-09T14:22:20.903Z,75396.56
2019-05-09T14:24:50.143Z,75373.34
2019-05-09T14:27:22.929Z,75461.19
2019-05-09T14:29:52.216Z,75485.42
2019-05-09T14:32:21.890Z,75492.48
2019-05-09T14:34:51.392Z,75468.25
2019-05-09T14:37:20.667Z,75522.78
2019-05-09T14:39:58.396Z,75464.21
2019-05-09T14:42:21.447Z,75463.20
2019-05-09T14:44:50.703Z,75500.56
2019-05-09T14:47:21.839Z,75553.07
2019-05-09T14:49:51.601Z,75575.28
2019-05-09T14:52:21.238Z,75507.63
2019-05-09T14:54:51.226Z,75490.47
2019-05-09T14:57:22.702Z,75517.73
2019-05-09T14:59:51.973Z,75512.68
2019-05-09T15:02:22.837Z,75464.21
2019-05-09T15:04:52.374Z,75420.80
2019-05-09T15:07:21.621Z,75406.66
2019-05-09T15:09:54.020Z,75408.67
2019-05-09T15:12:23.429Z,75453.10
2019-05-09T15:14:54.941Z,75480.37
2019-05-09T15:17:24.543Z,75470.27
2019-05-09T15:20:00.069Z,75493.50
2019-05-09T15:22:24.867Z,75524.80
2019-05-09T15:24:54.101Z,75521.77
2019-05-09T15:27:25.142Z,75542.97
2019-05-09T15:29:58.481Z,75559.13
2019-05-09T15:32:27.982Z,75552.06
2019-05-09T15:34:59.634Z,75558.12
2019-05-09T15:37:29.525Z,75578.31
2019-05-09T15:39:59.081Z,75663.14
2019-05-09T15:42:30.553Z,75713.63
2019-05-09T15:45:00.447Z,75766.14
2019-05-09T15:47:34.738Z,75837.84
2019-05-09T15:50:16.571Z,75870.16
2019-05-09T15:52:38.236Z,75889.34
2019-05-09T15:55:09.451Z,75890.34
2019-05-09T15:57:38.805Z,75873.18
2019-05-09T16:00:09.975Z,75919.63
2019-05-09T16:02:39.394Z,75908.53
2019-05-09T16:05:10.577Z,75924.69
2019-05-09T16:07:40.064Z,75928.72
2019-05-09T16:10:09.962Z,75886.31
2019-05-09T16:12:39.623Z,75868.13
2019-05-09T16:15:10.597Z,75862.07
2019-05-09T16:17:40.462Z,75832.79
2019-05-09T16:20:10.205Z,75865.10
2019-05-09T16:22:39.814Z,75877.22
2019-05-09T16:25:10.203Z,75888.33
2019-05-09T16:27:40.709Z,75880.25
2019-05-09T16:30:10.538Z,75895.40
2019-05-09T16:32:40.791Z,75919.63
2019-05-09T16:35:10.291Z,75941.85
2019-05-09T16:37:56.954Z,75960.03
2019-05-09T16:40:10.928Z,75971.14
2019-05-09T16:42:40.267Z,75972.15
2019-05-09T16:45:10.379Z,75996.38
2019-05-09T16:47:41.465Z,75981.23
2019-05-09T16:50:12.352Z,75946.90
2019-05-09T16:52:43.741Z,75964.06
2019-05-09T16:55:18.119Z,75950.94
2019-05-09T16:57:48.155Z,75928.72
2019-05-09T17:00:31.666Z,75954.98
2019-05-09T17:03:02.741Z,75964.06
2019-05-09T17:05:33.792Z,75949.93
2019-05-09T17:08:03.125Z,75942.86
2019-05-09T17:10:32.817Z,75875.20
2019-05-09T17:13:02.096Z,75857.02
2019-05-09T17:15:31.341Z,75873.18
2019-05-09T17:18:00.632Z,75902.47
2019-05-09T17:20:40.600Z,75921.66
2019-05-09T17:23:17.806Z,75927.71
2019-05-09T17:25:48.013Z,75954.98
2019-05-09T17:28:18.030Z,75991.34
2019-05-09T17:30:49.719Z,76015.58
2019-05-09T17:33:19.361Z,76037.79
2019-05-09T17:35:50.792Z,76081.22
2019-05-09T17:38:20.451Z,76127.67
2019-05-09T17:40:50.220Z,76150.90
2019-05-09T17:43:20.133Z,76188.27
2019-05-09T17:45:49.439Z,76218.56
2019-05-09T17:48:21.117Z,76250.88
2019-05-09T17:50:51.379Z,76276.13
2019-05-09T17:53:21.219Z,76309.46
2019-05-09T17:55:52.659Z,76307.44
2019-05-09T17:58:29.242Z,76324.61
2019-05-09T18:00:53.439Z,76345.82
2019-05-09T18:03:23.123Z,76423.59
2019-05-09T18:05:52.374Z,76461.97
2019-05-09T18:08:22.155Z,76455.91
2019-05-09T18:10:53.451Z,76466.01
2019-05-09T18:13:23.755Z,76454.90
2019-05-09T18:15:53.428Z,76420.56
2019-05-09T18:18:22.696Z,76424.59
2019-05-09T18:20:52.563Z,76446.81
2019-05-09T18:23:24.097Z,76439.75
2019-05-09T18:25:53.327Z,76409.45
2019-05-09T18:28:24.261Z,76417.53
2019-05-09T18:30:53.558Z,76421.56
2019-05-09T18:33:41.762Z,76424.59
2019-05-09T18:36:11.317Z,76445.81
2019-05-09T18:38:40.715Z,76475.09
2019-05-09T18:41:10.346Z,76490.25
2019-05-09T18:43:41.663Z,76521.56
2019-05-09T18:46:12.465Z,76543.78
2019-05-09T18:48:42.111Z,76553.88
2019-05-09T18:51:12.379Z,76570.04
2019-05-09T18:53:42.041Z,76583.17
2019-05-09T18:56:11.680Z,76591.25
2019-05-09T18:58:41.306Z,76585.19
2019-05-09T19:01:11.188Z,76580.14
2019-05-09T19:03:40.802Z,76590.23
2019-05-09T19:06:11.029Z,76596.30
2019-05-09T19:08:40.301Z,76617.51
2019-05-09T19:11:11.695Z,76640.74
2019-05-09T19:13:42.308Z,76642.77
2019-05-09T19:16:40.345Z,76653.88
2019-05-09T19:19:19.632Z,76705.38
2019-05-09T19:21:52.840Z,76732.66
2019-05-09T19:24:22.392Z,76742.76
2019-05-09T19:26:53.070Z,76743.77
2019-05-09T19:29:23.820Z,76751.84
2019-05-09T19:31:53.246Z,76744.78
2019-05-09T19:34:43.310Z,76747.81
2019-05-09T19:37:13.394Z,76746.80
2019-05-09T19:39:43.885Z,76750.84
2019-05-09T19:42:14.327Z,76739.73
2019-05-09T19:44:43.957Z,76739.73
2019-05-09T19:47:14.526Z,76743.77
2019-05-09T19:49:43.808Z,76745.79
2019-05-09T19:52:13.571Z,76726.59
2019-05-09T19:54:44.926Z,76714.48
2019-05-09T19:57:16.506Z,76713.47
2019-05-09T19:59:45.783Z,76718.52
2019-05-09T20:02:18.685Z,76720.53
2019-05-09T20:04:50.212Z,76714.48
2019-05-09T20:07:19.471Z,76713.47
2019-05-09T20:09:54.441Z,76710.44
2019-05-09T20:12:42.903Z,76712.45
2019-05-09T20:15:14.905Z,76717.50
2019-05-09T20:17:44.516Z,76723.56
2019-05-09T20:20:13.911Z,76720.53
2019-05-09T20:22:52.414Z,76720.53
2019-05-09T20:25:15.700Z,76725.59
2019-05-09T20:27:44.977Z,76727.61
2019-05-09T20:30:15.720Z,76716.50
2019-05-09T20:32:45.360Z,76727.61
2019-05-09T20:35:14.902Z,76731.65
2019-05-09T20:37:44.489Z,76736.70
2019-05-09T20:40:14.438Z,76731.65
2019-05-09T20:42:44.483Z,76731.65
2019-05-09T20:45:14.452Z,76743.77
2019-05-09T20:47:44.295Z,76745.79
2019-05-09T20:50:13.888Z,76757.91
2019-05-09T20:52:43.312Z,76780.13
2019-05-09T20:55:15.207Z,76769.02
2019-05-09T20:57:45.794Z,76764.98
2019-05-09T21:00:15.213Z,76754.88
2019-05-09T21:02:45.102Z,76737.70
2019-05-09T21:05:15.126Z,76746.80
2019-05-09T21:07:44.859Z,76755.89
2019-05-09T21:10:14.418Z,76764.98
2019-05-09T21:12:43.971Z,76773.06
2019-05-09T21:15:13.901Z,76768.02
2019-05-09T21:17:44.333Z,76782.16
2019-05-09T21:20:14.153Z,76783.16
2019-05-09T21:22:44.045Z,76779.13
2019-05-09T21:25:13.481Z,76787.20
2019-05-09T21:27:43.384Z,76785.18
2019-05-09T21:30:13.139Z,76797.30
2019-05-09T21:32:42.653Z,76801.34
2019-05-09T21:35:13.741Z,76814.47
2019-05-09T21:37:43.012Z,76827.61
2019-05-09T21:40:12.501Z,76849.83
2019-05-09T21:42:41.829Z,76838.72
2019-05-09T21:45:12.429Z,76846.80
2019-05-09T21:47:42.824Z,76846.80
2019-05-09T21:50:12.530Z,76850.84
2019-05-09T21:52:42.242Z,76850.84
2019-05-09T21:55:11.495Z,76853.87
2019-05-09T21:57:41.031Z,76864.98
2019-05-09T22:00:14.487Z,76871.04
2019-05-09T22:02:43.768Z,76867.00
2019-05-09T22:05:14.073Z,76859.92
2019-05-09T22:07:44.487Z,76871.04
2019-05-09T22:10:15.466Z,76878.11
2019-05-09T22:12:46.557Z,76877.10
2019-05-09T22:15:17.434Z,76892.25
2019-05-09T22:17:47.695Z,76893.27
2019-05-09T22:20:17.847Z,76894.27
2019-05-09T22:22:47.135Z,76906.39
2019-05-09T22:25:16.633Z,76899.32
2019-05-09T22:27:46.395Z,76899.32
2019-05-09T22:30:18.339Z,76904.38
2019-05-09T22:32:47.678Z,76904.38
2019-05-09T22:35:18.815Z,76909.42
2019-05-09T22:37:49.116Z,76911.44
2019-05-09T22:40:18.663Z,76916.49
2019-05-09T22:42:49.876Z,76916.49
2019-05-09T22:45:21.019Z,76905.38
2019-05-09T22:47:51.661Z,76907.41
2019-05-09T22:50:20.973Z,76912.45
2019-05-09T22:52:51.424Z,76919.52
2019-05-09T22:55:20.691Z,76906.39
2019-05-09T22:57:51.844Z,76912.45
2019-05-09T23:00:21.412Z,76895.28
2019-05-09T23:02:50.714Z,76905.38
2019-05-09T23:05:19.951Z,76912.45
2019-05-09T23:07:49.552Z,76900.33
2019-05-09T23:10:19.916Z,76885.18
2019-05-09T23:12:51.205Z,76874.06
2019-05-09T23:15:21.045Z,76871.04
2019-05-09T23:17:50.716Z,76859.92
2019-05-09T23:20:38.335Z,76867.00
2019-05-09T23:23:28.000Z,76885.18
2019-05-09T23:25:59.334Z,76905.38
2019-05-09T23:28:28.933Z,76914.47
2019-05-09T23:31:00.735Z,76912.45
2019-05-09T23:33:34.663Z,76910.43
2019-05-09T23:36:04.290Z,76899.32
2019-05-09T23:38:33.967Z,76899.32
2019-05-09T23:41:03.919Z,76893.27
2019-05-09T23:43:33.166Z,76891.24
2019-05-09T23:46:04.278Z,76887.20
2019-05-09T23:48:34.651Z,76892.25
2019-05-09T23:51:03.891Z,76887.20
2019-05-09T23:53:37.420Z,76898.31
2019-05-09T23:56:25.843Z,76921.55
2019-05-09T23:59:13.534Z,76930.63
